KSWF/SWF METAR and TAF weather

Enter ICAO airport designator
Station Type Date Time Source
KSWF METAR 2018/12/18 18:45 UTC NOAA

KSWF 181845Z 31010G16KT 20SM SKC 00/M09 A3003


Station Type Date Time Source
KSWF Decoded METAR 2018/12/18 18:45 UTC NOAA

Newburgh / Stewart, NY, United States (KSWF) 41-30N 074-06W
Dec 18, 2018 - 01:45 PM EST / 2018.12.18 1845 UTC
Wind: from the NW (310 degrees) at 12 MPH (10 KT) gusting to 18 MPH (16 KT):0
Visibility: 20 mile(s):0
Sky conditions: clear
Temperature: 32 F (0 C)
Windchill: 23 F (-5 C):1
Dew Point: 15 F (-9 C)
Relative Humidity: 50%
Pressure (altimeter): 30.03 in. Hg (1016 hPa)
ob: KSWF 181845Z 31010G16KT 20SM SKC 00/M09 A3003
cycle: 19

Station Type Date Time Source
KSWF TAF 2018/12/18 18:48 UTC NOAA

TAF KSWF 181745Z 1818/1924 32013G20KT P6SM FEW040
FM190000 30011KT P6SM SKC
FM190200 30007KT P6SM FEW250
FM190700 VRB03KT P6SM FEW250
FM191600 25006KT P6SM SCT250
FM192100 23004KT P6SM SCT250
AMD NOT SKED


Example: see airport list